createdAt,value
2022-10-23T00:01:57.539Z,100826.00
2022-10-23T00:05:00.415Z,100831.38
2022-10-23T00:08:02.867Z,100832.25
2022-10-23T00:11:10.635Z,100828.66
2022-10-23T00:14:13.358Z,100834.94
2022-10-23T00:17:16.088Z,100839.41
2022-10-23T00:20:18.740Z,100843.78
2022-10-23T00:23:21.487Z,100832.06
2022-10-23T00:26:23.931Z,100821.41
2022-10-23T00:29:28.250Z,100813.53
2022-10-23T00:35:42.260Z,100825.91
2022-10-23T00:38:45.574Z,100818.84
2022-10-23T00:41:48.346Z,100822.44
2022-10-23T00:44:50.722Z,100816.19
2022-10-23T00:47:54.559Z,100825.00
2022-10-23T00:50:57.095Z,100824.94
2022-10-23T00:54:22.930Z,100816.94
2022-10-23T00:57:23.220Z,100827.94
2022-10-23T01:00:30.053Z,100827.91
2022-10-23T01:03:34.264Z,100823.44
2022-10-23T01:06:42.574Z,100824.25
2022-10-23T01:10:06.467Z,100819.94
2022-10-23T01:13:15.420Z,100827.84
2022-10-23T01:16:28.916Z,100829.50
2022-10-23T01:19:47.658Z,100828.62
2022-10-23T01:23:02.296Z,100838.38
2022-10-23T01:26:25.180Z,100829.38
2022-10-23T01:29:39.847Z,100829.25
2022-10-23T01:32:56.524Z,100829.16
2022-10-23T01:36:05.125Z,100829.25
2022-10-23T01:39:11.893Z,100829.56
2022-10-23T01:42:25.231Z,100832.00
2022-10-23T01:45:35.553Z,100835.53
2022-10-23T01:48:38.353Z,100831.97
2022-10-23T01:51:44.341Z,100842.47
2022-10-23T01:54:50.491Z,100843.28
2022-10-23T01:57:53.857Z,100850.56
2022-10-23T02:00:59.992Z,100854.84
2022-10-23T02:04:05.193Z,100857.75
2022-10-23T02:07:07.786Z,100844.25
2022-10-23T02:10:11.187Z,100853.91
2022-10-23T02:13:22.934Z,100855.72
2022-10-23T02:16:38.152Z,100855.25
2022-10-23T02:19:56.238Z,100860.78
2022-10-23T02:23:03.451Z,100857.25
2022-10-23T02:26:17.569Z,100853.44
2022-10-23T02:29:34.497Z,100852.34
2022-10-23T02:32:42.865Z,100856.22
2022-10-23T02:38:54.368Z,100855.50
2022-10-23T02:42:03.073Z,100842.16
2022-10-23T02:45:11.145Z,100850.28
2022-10-23T02:48:23.576Z,100844.97
2022-10-23T02:51:41.627Z,100843.97
2022-10-23T02:54:51.219Z,100842.97
2022-10-23T02:58:12.999Z,100850.84
2022-10-23T03:01:19.106Z,100865.13
2022-10-23T03:04:24.189Z,100851.84
2022-10-23T03:07:27.240Z,100847.41
2022-10-23T03:10:34.627Z,100862.59
2022-10-23T03:13:37.452Z,100859.88
2022-10-23T03:16:39.907Z,100856.28
2022-10-23T03:19:45.311Z,100867.81
2022-10-23T03:22:49.580Z,100866.00
2022-10-23T03:25:54.997Z,100871.34
2022-10-23T03:29:02.166Z,100865.94
2022-10-23T03:32:05.099Z,100858.72
2022-10-23T03:35:10.926Z,100860.37
2022-10-23T03:38:15.096Z,100863.78
2022-10-23T03:41:17.721Z,100866.38
2022-10-23T03:44:20.469Z,100860.03
2022-10-23T03:47:22.933Z,100863.50
2022-10-23T03:50:26.297Z,100871.41
2022-10-23T03:53:29.590Z,100878.38
2022-10-23T03:56:32.307Z,100882.56
2022-10-23T03:59:35.553Z,100880.66
2022-10-23T04:02:40.565Z,100883.16
2022-10-23T04:05:44.350Z,100886.62
2022-10-23T04:08:49.430Z,100878.66
2022-10-23T04:11:55.885Z,100877.69
2022-10-23T04:15:02.623Z,100887.47
2022-10-23T04:18:05.689Z,100884.00
2022-10-23T04:21:08.994Z,100878.75
2022-10-23T04:24:11.570Z,100888.59
2022-10-23T04:27:14.992Z,100882.31
2022-10-23T04:30:18.149Z,100902.09
2022-10-23T04:33:21.319Z,100899.44
2022-10-23T04:36:24.395Z,100888.97
2022-10-23T04:39:27.232Z,100885.34
2022-10-23T04:42:29.782Z,100883.50
2022-10-23T04:45:35.467Z,100899.13
2022-10-23T04:48:37.916Z,100893.78
2022-10-23T04:51:44.874Z,100889.38
2022-10-23T04:54:47.747Z,100884.69
2022-10-23T04:57:51.340Z,100890.09
2022-10-23T05:00:55.807Z,100895.47
2022-10-23T05:03:58.898Z,100872.38
2022-10-23T05:07:01.761Z,100875.97
2022-10-23T05:10:06.324Z,100876.03
2022-10-23T05:13:10.686Z,100887.72
2022-10-23T05:16:33.600Z,100877.19
2022-10-23T05:19:41.964Z,100879.09
2022-10-23T05:22:46.241Z,100883.63
2022-10-23T05:25:49.467Z,100886.31
2022-10-23T05:28:52.591Z,100894.37
2022-10-23T05:31:59.041Z,100890.00
2022-10-23T05:35:08.848Z,100902.56
2022-10-23T05:38:11.934Z,100912.50
2022-10-23T05:41:15.317Z,100915.28
2022-10-23T05:44:18.207Z,100916.22
2022-10-23T05:47:22.300Z,100914.38
2022-10-23T05:50:27.760Z,100916.31
2022-10-23T05:53:31.558Z,100918.03
2022-10-23T05:56:36.924Z,100910.09
2022-10-23T05:59:40.451Z,100921.47
2022-10-23T06:02:44.582Z,100914.63
2022-10-23T06:05:52.029Z,100917.41
2022-10-23T06:08:54.897Z,100923.72
2022-10-23T06:11:57.731Z,100927.41
2022-10-23T06:15:00.283Z,100913.19
2022-10-23T06:18:04.683Z,100922.22
2022-10-23T06:21:08.255Z,100921.47
2022-10-23T06:24:11.191Z,100915.25
2022-10-23T06:27:13.866Z,100912.56
2022-10-23T06:30:16.904Z,100925.16
2022-10-23T06:33:20.855Z,100913.56
2022-10-23T06:36:24.187Z,100912.69
2022-10-23T06:39:29.886Z,100910.97
2022-10-23T06:42:35.496Z,100902.97
2022-10-23T06:45:40.606Z,100912.91
2022-10-23T06:48:49.238Z,100912.00
2022-10-23T06:51:51.946Z,100910.19
2022-10-23T06:54:56.640Z,100913.84
2022-10-23T06:58:00.282Z,100910.38
2022-10-23T07:01:06.423Z,100916.75
2022-10-23T07:04:09.029Z,100916.78
2022-10-23T07:07:11.977Z,100903.34
2022-10-23T07:10:15.558Z,100908.78
2022-10-23T07:13:18.677Z,100909.62
2022-10-23T07:16:22.729Z,100914.03
2022-10-23T07:19:25.744Z,100923.78
2022-10-23T07:22:28.692Z,100931.75
2022-10-23T07:25:35.937Z,100938.94
2022-10-23T07:28:38.916Z,100933.44
2022-10-23T07:31:41.739Z,100927.19
2022-10-23T07:34:47.074Z,100926.41
2022-10-23T07:37:50.163Z,100936.22
2022-10-23T07:40:53.772Z,100937.12
2022-10-23T07:43:56.892Z,100928.19
2022-10-23T07:46:59.524Z,100928.28
2022-10-23T07:50:02.856Z,100925.63
2022-10-23T07:53:05.355Z,100924.66
2022-10-23T07:56:15.409Z,100918.41
2022-10-23T07:59:20.416Z,100921.97
2022-10-23T08:02:24.198Z,100920.25
2022-10-23T08:05:27.824Z,100911.31
2022-10-23T08:08:31.394Z,100906.91
2022-10-23T08:11:35.877Z,100911.41
2022-10-23T08:14:39.056Z,100921.31
2022-10-23T08:17:42.712Z,100922.19
2022-10-23T08:20:47.739Z,100911.53
2022-10-23T08:23:53.592Z,100915.97
2022-10-23T08:26:56.095Z,100921.31
2022-10-23T08:30:05.162Z,100927.66
2022-10-23T08:33:07.777Z,100935.72
2022-10-23T08:36:23.343Z,100938.41
2022-10-23T08:39:25.838Z,100941.16
2022-10-23T08:42:30.125Z,100938.44
2022-10-23T08:45:44.185Z,100943.78
2022-10-23T08:48:50.915Z,100937.66
2022-10-23T08:52:10.379Z,100936.78
2022-10-23T08:55:24.279Z,100932.34
2022-10-23T08:58:35.553Z,100916.28
2022-10-23T09:01:42.456Z,100927.00
2022-10-23T09:04:47.332Z,100932.37
2022-10-23T09:08:20.291Z,100933.28
2022-10-23T09:11:28.845Z,100933.28
2022-10-23T09:14:59.219Z,100930.66
2022-10-23T09:18:10.896Z,100927.94
2022-10-23T09:21:13.708Z,100927.97
2022-10-23T09:24:18.544Z,100925.28
2022-10-23T09:27:21.398Z,100926.19
2022-10-23T09:30:36.053Z,100928.84
2022-10-23T09:33:39.546Z,100917.22
2022-10-23T09:36:50.723Z,100911.87
2022-10-23T09:40:15.697Z,100916.34
2022-10-23T09:43:21.820Z,100907.38
2022-10-23T09:46:25.920Z,100908.25
2022-10-23T09:49:31.284Z,100897.50
2022-10-23T09:52:36.212Z,100894.84
2022-10-23T09:55:39.418Z,100887.69
2022-10-23T09:59:01.992Z,100882.28
2022-10-23T10:02:16.535Z,100869.78
2022-10-23T10:05:22.799Z,100877.81
2022-10-23T10:08:44.603Z,100872.47
2022-10-23T10:11:54.384Z,100877.84
2022-10-23T10:15:16.981Z,100872.47
2022-10-23T10:18:21.971Z,100870.66
2022-10-23T10:21:50.694Z,100871.56
2022-10-23T10:25:14.969Z,100871.56
2022-10-23T10:28:36.365Z,100861.69
2022-10-23T10:31:50.680Z,100850.94
2022-10-23T10:35:10.280Z,100849.12
2022-10-23T10:38:34.954Z,100849.12
2022-10-23T10:41:44.547Z,100851.81
2022-10-23T10:44:56.776Z,100858.03
2022-10-23T10:48:11.489Z,100858.03
2022-10-23T10:51:41.341Z,100861.66
2022-10-23T10:55:27.261Z,100850.84
2022-10-23T10:58:40.537Z,100849.06
2022-10-23T11:01:51.096Z,100841.88
2022-10-23T11:05:25.139Z,100836.50
2022-10-23T11:08:44.565Z,100830.19
2022-10-23T11:11:58.138Z,100816.69
2022-10-23T11:15:00.610Z,100814.00
2022-10-23T11:18:12.264Z,100804.13
2022-10-23T11:21:27.009Z,100800.53
2022-10-23T11:24:57.250Z,100802.34
2022-10-23T11:28:10.347Z,100789.81
2022-10-23T11:31:32.768Z,100793.37
2022-10-23T11:34:51.929Z,100780.84
2022-10-23T11:38:07.757Z,100772.72
2022-10-23T11:41:22.303Z,100770.91
2022-10-23T11:44:45.375Z,100771.81
2022-10-23T11:47:57.075Z,100765.53
2022-10-23T11:51:01.541Z,100765.56
2022-10-23T11:54:17.016Z,100761.97
2022-10-23T11:57:19.880Z,100758.31
2022-10-23T12:00:23.287Z,100743.78
2022-10-23T12:03:31.132Z,100740.94
2022-10-23T12:06:40.163Z,100733.50
2022-10-23T12:09:53.105Z,100720.75
2022-10-23T12:12:58.396Z,100713.62
2022-10-23T12:16:01.311Z,100709.19
2022-10-23T12:19:19.688Z,100717.25
2022-10-23T12:22:25.622Z,100706.38
2022-10-23T12:25:47.049Z,100702.56
2022-10-23T12:29:18.768Z,100701.44
2022-10-23T12:32:55.423Z,100695.03
2022-10-23T12:36:16.745Z,100687.97
2022-10-23T12:39:51.441Z,100690.56
2022-10-23T12:42:55.279Z,100688.69
2022-10-23T12:46:05.768Z,100690.63
2022-10-23T12:49:20.498Z,100689.59
2022-10-23T12:52:25.313Z,100677.00
2022-10-23T12:55:35.068Z,100666.19
2022-10-23T12:58:49.646Z,100663.44
2022-10-23T13:01:53.879Z,100648.16
2022-10-23T13:04:58.921Z,100637.28
2022-10-23T13:08:02.741Z,100638.09
2022-10-23T13:11:10.144Z,100630.88
2022-10-23T13:14:14.584Z,100624.53
2022-10-23T13:17:17.041Z,100616.41
2022-10-23T13:20:26.749Z,100618.09
2022-10-23T13:23:31.197Z,100626.34
2022-10-23T13:26:45.133Z,100628.06
2022-10-23T13:29:47.820Z,100623.72
2022-10-23T13:32:50.550Z,100622.81
2022-10-23T13:36:01.296Z,100643.47
2022-10-23T13:39:09.997Z,100638.84
2022-10-23T13:42:14.788Z,100635.31
2022-10-23T13:45:20.822Z,100628.72
2022-10-23T13:48:23.466Z,100626.81
2022-10-23T13:51:28.589Z,100607.06
2022-10-23T13:54:31.333Z,100604.38
2022-10-23T13:57:34.038Z,100594.50
2022-10-23T14:00:37.900Z,100575.59
2022-10-23T14:03:40.648Z,100572.03
2022-10-23T14:06:43.956Z,100572.03
2022-10-23T14:09:46.805Z,100564.94
2022-10-23T14:12:53.694Z,100560.44
2022-10-23T14:15:56.618Z,100575.75
2022-10-23T14:18:59.259Z,100565.69
2022-10-23T14:22:02.104Z,100560.06
2022-10-23T14:25:05.397Z,100570.78
2022-10-23T14:28:08.140Z,100576.06
2022-10-23T14:31:13.205Z,100580.28
2022-10-23T14:34:16.107Z,100591.97
2022-10-23T14:37:19.595Z,100588.16
2022-10-23T14:40:22.573Z,100591.75
2022-10-23T14:43:25.172Z,100594.53
2022-10-23T14:46:28.002Z,100592.00
2022-10-23T14:49:31.027Z,100576.06
2022-10-23T14:52:33.756Z,100584.41
2022-10-23T14:55:36.322Z,100582.91
2022-10-23T14:58:39.212Z,100592.22
2022-10-23T15:01:45.498Z,100575.28
2022-10-23T15:04:49.998Z,100585.31
2022-10-23T15:07:52.593Z,100582.59
2022-10-23T15:11:00.301Z,100578.00
2022-10-23T15:14:02.904Z,100566.28
2022-10-23T15:17:05.864Z,100577.91
2022-10-23T15:20:08.884Z,100577.91
2022-10-23T15:23:11.762Z,100581.47
2022-10-23T15:26:23.244Z,100581.59
2022-10-23T15:29:25.981Z,100585.31
2022-10-23T15:32:28.491Z,100585.38
2022-10-23T15:35:32.134Z,100586.31
2022-10-23T15:38:34.805Z,100573.75
2022-10-23T15:41:40.233Z,100577.41
2022-10-23T15:44:42.841Z,100580.25
2022-10-23T15:47:46.065Z,100561.41
2022-10-23T15:50:48.860Z,100558.75
2022-10-23T15:53:51.967Z,100565.09
2022-10-23T15:56:55.121Z,100569.63
2022-10-23T15:59:57.994Z,100566.06
2022-10-23T16:03:00.471Z,100568.72
2022-10-23T16:06:04.672Z,100571.34
2022-10-23T16:09:07.400Z,100568.56
2022-10-23T16:12:10.368Z,100561.31
2022-10-23T16:15:13.065Z,100572.87
2022-10-23T16:18:18.072Z,100584.50
2022-10-23T16:21:26.027Z,100578.16
2022-10-23T16:24:30.060Z,100573.59
2022-10-23T16:27:32.787Z,100558.28
2022-10-23T16:30:41.394Z,100546.56
2022-10-23T16:33:44.130Z,100557.41
2022-10-23T16:36:47.334Z,100556.47
2022-10-23T16:39:50.477Z,100568.19
2022-10-23T16:42:57.879Z,100570.00
2022-10-23T16:46:20.358Z,100576.34
2022-10-23T16:49:23.529Z,100578.09
2022-10-23T16:52:27.518Z,100574.50
2022-10-23T16:55:30.557Z,100574.50
2022-10-23T16:58:33.301Z,100578.12
2022-10-23T17:01:36.141Z,100578.12
2022-10-23T17:04:38.921Z,100583.50
2022-10-23T17:07:42.074Z,100579.03
2022-10-23T17:10:45.325Z,100577.25
2022-10-23T17:14:00.215Z,100583.56
2022-10-23T17:17:03.649Z,100587.09
2022-10-23T17:20:07.058Z,100581.69
2022-10-23T17:23:09.733Z,100588.88
2022-10-23T17:26:14.914Z,100581.66
2022-10-23T17:29:18.422Z,100589.75
2022-10-23T17:35:29.139Z,100578.00
2022-10-23T17:38:32.136Z,100587.88
2022-10-23T17:41:35.053Z,100592.41
2022-10-23T17:44:38.103Z,100589.69
2022-10-23T17:47:43.061Z,100590.63
2022-10-23T17:50:45.966Z,100586.16
2022-10-23T17:53:51.781Z,100579.78
2022-10-23T17:56:55.086Z,100572.56
2022-10-23T17:59:57.808Z,100572.59
2022-10-23T18:03:00.585Z,100571.66
2022-10-23T18:06:11.385Z,100569.88
2022-10-23T18:09:15.222Z,100568.94
2022-10-23T18:12:18.488Z,100565.38
2022-10-23T18:15:21.305Z,100565.41
2022-10-23T18:18:24.248Z,100566.31
2022-10-23T18:21:27.271Z,100569.88
2022-10-23T18:24:31.121Z,100566.25
2022-10-23T18:27:33.628Z,100568.97
2022-10-23T18:33:42.339Z,100556.34
2022-10-23T18:36:45.664Z,100560.88
2022-10-23T18:39:48.810Z,100564.50
2022-10-23T18:42:51.841Z,100571.63
2022-10-23T18:45:54.637Z,100568.87
2022-10-23T18:48:58.893Z,100566.16
2022-10-23T18:52:03.430Z,100570.66
2022-10-23T18:55:07.657Z,100558.94
2022-10-23T18:58:10.517Z,100563.41
2022-10-23T19:01:13.621Z,100565.19
2022-10-23T19:04:18.014Z,100559.78
2022-10-23T19:07:21.230Z,100540.88
2022-10-23T19:10:25.677Z,100536.34
2022-10-23T19:13:28.780Z,100535.31
2022-10-23T19:16:41.955Z,100531.69
2022-10-23T19:19:48.655Z,100523.50
2022-10-23T19:22:52.611Z,100527.06
2022-10-23T19:25:55.403Z,100518.81
2022-10-23T19:28:58.170Z,100514.25
2022-10-23T19:32:01.855Z,100503.41
2022-10-23T19:35:04.858Z,100506.06
2022-10-23T19:38:07.873Z,100504.97
2022-10-23T19:41:10.882Z,100505.63
2022-10-23T19:44:14.483Z,100509.00
2022-10-23T19:47:17.341Z,100517.00
2022-10-23T19:50:20.466Z,100517.81
2022-10-23T19:53:23.177Z,100504.19
2022-10-23T19:56:26.435Z,100494.37
2022-10-23T19:59:29.894Z,100494.47
2022-10-23T20:05:46.537Z,100517.94
2022-10-23T20:08:49.556Z,100525.22
2022-10-23T20:11:52.552Z,100529.66
2022-10-23T20:14:55.237Z,100527.88
2022-10-23T20:17:58.513Z,100530.66
2022-10-23T20:21:02.601Z,100527.97
2022-10-23T20:24:06.304Z,100534.31
2022-10-23T20:27:15.511Z,100535.25
2022-10-23T20:30:18.562Z,100517.22
2022-10-23T20:33:21.293Z,100531.63
2022-10-23T20:36:45.488Z,100530.66
2022-10-23T20:39:49.744Z,100530.59
2022-10-23T20:42:52.756Z,100535.94
2022-10-23T20:45:55.335Z,100519.66
2022-10-23T20:48:59.229Z,100497.97
2022-10-23T20:52:02.818Z,100499.81
2022-10-23T20:55:06.029Z,100489.03
2022-10-23T20:58:09.439Z,100499.78
2022-10-23T21:01:16.445Z,100500.63
2022-10-23T21:04:20.978Z,100494.31
2022-10-23T21:07:23.752Z,100497.91
2022-10-23T21:10:26.262Z,100507.78
2022-10-23T21:13:29.412Z,100516.75
2022-10-23T21:16:34.321Z,100511.31
2022-10-23T21:19:37.130Z,100515.88
2022-10-23T21:22:39.558Z,100516.75
2022-10-23T21:25:42.363Z,100511.34
2022-10-23T21:28:55.829Z,100505.13
2022-10-23T21:32:08.531Z,100502.44
2022-10-23T21:35:10.948Z,100481.81
2022-10-23T21:38:13.717Z,100481.91
2022-10-23T21:41:19.700Z,100482.88
2022-10-23T21:44:22.497Z,100471.25
2022-10-23T21:47:24.992Z,100475.78
2022-10-23T21:50:27.760Z,100482.06
2022-10-23T21:53:30.294Z,100489.38
2022-10-23T21:56:56.226Z,100486.66
2022-10-23T21:59:58.920Z,100474.16
2022-10-23T22:03:01.609Z,100472.22
2022-10-23T22:06:04.392Z,100480.28
2022-10-23T22:09:08.118Z,100483.03
2022-10-23T22:12:11.558Z,100482.13
2022-10-23T22:15:13.985Z,100491.09
2022-10-23T22:18:16.873Z,100506.25
2022-10-23T22:21:22.130Z,100507.03
2022-10-23T22:24:25.051Z,100500.63
2022-10-23T22:27:27.998Z,100496.03
2022-10-23T22:30:30.716Z,100503.12
2022-10-23T22:33:33.203Z,100504.87
2022-10-23T22:36:37.136Z,100502.16
2022-10-23T22:39:39.997Z,100494.87
2022-10-23T22:42:43.470Z,100483.12
2022-10-23T22:45:46.224Z,100469.66
2022-10-23T22:48:49.154Z,100454.25
2022-10-23T22:51:51.705Z,100454.06
2022-10-23T22:54:54.427Z,100443.13
2022-10-23T22:57:56.847Z,100453.59
2022-10-23T23:01:18.287Z,100462.59
2022-10-23T23:07:45.552Z,100463.31
2022-10-23T23:10:55.478Z,100470.53
2022-10-23T23:13:58.223Z,100467.75
2022-10-23T23:17:00.766Z,100466.72
2022-10-23T23:20:03.784Z,100455.03
2022-10-23T23:23:06.354Z,100454.09
2022-10-23T23:26:09.095Z,100461.13
2022-10-23T23:29:11.955Z,100459.19
2022-10-23T23:32:14.736Z,100470.84
2022-10-23T23:35:18.176Z,100466.25
2022-10-23T23:38:20.908Z,100474.41
2022-10-23T23:41:23.924Z,100485.25
2022-10-23T23:44:26.811Z,100494.22
2022-10-23T23:47:29.321Z,100492.41
2022-10-23T23:50:32.109Z,100487.75
2022-10-23T23:53:34.635Z,100485.19
2022-10-23T23:56:37.366Z,100479.81
2022-10-23T23:59:41.293Z,100482.53
